sensor_id;sensor_type;location;lat;lon;timestamp;pressure;altitude;pressure_sealevel;temperature;humidity
14067;BME280;7108;42.684;23.350;2022-10-23T00:02:08;95842.19;;;11.99;100.00
14067;BME280;7108;42.684;23.350;2022-10-23T00:04:38;95839.91;;;12.01;100.00
14067;BME280;7108;42.684;23.350;2022-10-23T00:07:06;95827.47;;;11.97;100.00
14067;BME280;7108;42.684;23.350;2022-10-23T00:09:34;95818.06;;;11.91;100.00
14067;BME280;7108;42.684;23.350;2022-10-23T00:12:08;95814.06;;;11.85;100.00
14067;BME280;7108;42.684;23.350;2022-10-23T00:14:37;95813.03;;;11.89;100.00
14067;BME280;7108;42.684;23.350;2022-10-23T00:17:05;95823.81;;;11.89;100.00
14067;BME280;7108;42.684;23.350;2022-10-23T00:19:31;95827.13;;;11.83;100.00
14067;BME280;7108;42.684;23.350;2022-10-23T00:21:58;95832.78;;;11.93;100.00
14067;BME280;7108;42.684;23.350;2022-10-23T00:24:26;95811.53;;;11.92;100.00
14067;BME280;7108;42.684;23.350;2022-10-23T00:26:54;95807.19;;;11.87;100.00
14067;BME280;7108;42.684;23.350;2022-10-23T00:29:25;95829.81;;;11.83;100.00
14067;BME280;7108;42.684;23.350;2022-10-23T00:31:52;95831.47;;;11.72;100.00
14067;BME280;7108;42.684;23.350;2022-10-23T00:34:20;95840.13;;;11.77;100.00
14067;BME280;7108;42.684;23.350;2022-10-23T00:36:50;95823.66;;;11.67;100.00
14067;BME280;7108;42.684;23.350;2022-10-23T00:39:18;95797.53;;;11.56;100.00
14067;BME280;7108;42.684;23.350;2022-10-23T00:41:44;95822.53;;;11.83;100.00
14067;BME280;7108;42.684;23.350;2022-10-23T00:46:58;95824.09;;;11.84;100.00
14067;BME280;7108;42.684;23.350;2022-10-23T00:49:29;95811.00;;;11.86;100.00
14067;BME280;7108;42.684;23.350;2022-10-23T00:52:02;95797.69;;;11.78;100.00
14067;BME280;7108;42.684;23.350;2022-10-23T00:54:37;95805.91;;;11.66;100.00
14067;BME280;7108;42.684;23.350;2022-10-23T00:57:13;95805.13;;;11.50;100.00
14067;BME280;7108;42.684;23.350;2022-10-23T00:59:52;95805.81;;;11.63;100.00
14067;BME280;7108;42.684;23.350;2022-10-23T01:02:26;95829.47;;;11.38;100.00
14067;BME280;7108;42.684;23.350;2022-10-23T01:04:54;95844.53;;;11.39;100.00
14067;BME280;7108;42.684;23.350;2022-10-23T01:07:41;95811.44;;;11.27;100.00
14067;BME280;7108;42.684;23.350;2022-10-23T01:10:34;95827.63;;;11.42;100.00
14067;BME280;7108;42.684;23.350;2022-10-23T01:16:10;95869.06;;;11.50;100.00
14067;BME280;7108;42.684;23.350;2022-10-23T01:18:58;95876.53;;;11.53;100.00
14067;BME280;7108;42.684;23.350;2022-10-23T01:29:42;95852.75;;;11.58;100.00
14067;BME280;7108;42.684;23.350;2022-10-23T01:32:23;95880.00;;;11.69;100.00
14067;BME280;7108;42.684;23.350;2022-10-23T01:35:18;95885.81;;;11.71;100.00
14067;BME280;7108;42.684;23.350;2022-10-23T01:37:56;95878.50;;;11.56;100.00
14067;BME280;7108;42.684;23.350;2022-10-23T01:40:32;95895.00;;;11.66;100.00
14067;BME280;7108;42.684;23.350;2022-10-23T01:43:09;95893.22;;;11.58;100.00
14067;BME280;7108;42.684;23.350;2022-10-23T01:45:42;95895.09;;;11.42;100.00
14067;BME280;7108;42.684;23.350;2022-10-23T01:48:15;95891.06;;;11.36;100.00
14067;BME280;7108;42.684;23.350;2022-10-23T01:50:43;95890.50;;;11.43;100.00
14067;BME280;7108;42.684;23.350;2022-10-23T01:53:10;95854.78;;;11.34;100.00
14067;BME280;7108;42.684;23.350;2022-10-23T01:55:52;95876.69;;;11.60;100.00
14067;BME280;7108;42.684;23.350;2022-10-23T01:58:23;95873.47;;;11.54;100.00
14067;BME280;7108;42.684;23.350;2022-10-23T02:00:52;95888.00;;;11.65;100.00
14067;BME280;7108;42.684;23.350;2022-10-23T02:03:23;95895.31;;;11.65;100.00
14067;BME280;7108;42.684;23.350;2022-10-23T02:05:49;95891.75;;;11.61;100.00
14067;BME280;7108;42.684;23.350;2022-10-23T02:08:20;95891.31;;;11.59;100.00
14067;BME280;7108;42.684;23.350;2022-10-23T02:11:16;95907.50;;;11.74;100.00
14067;BME280;7108;42.684;23.350;2022-10-23T02:14:25;95893.25;;;11.74;100.00
14067;BME280;7108;42.684;23.350;2022-10-23T02:16:59;95906.56;;;11.67;100.00
14067;BME280;7108;42.684;23.350;2022-10-23T02:19:49;95881.69;;;11.46;100.00
14067;BME280;7108;42.684;23.350;2022-10-23T02:25:19;95892.09;;;11.59;100.00
14067;BME280;7108;42.684;23.350;2022-10-23T02:27:53;95893.84;;;11.67;100.00
14067;BME280;7108;42.684;23.350;2022-10-23T02:30:27;95898.66;;;11.74;100.00
14067;BME280;7108;42.684;23.350;2022-10-23T02:33:00;95902.97;;;11.78;100.00
14067;BME280;7108;42.684;23.350;2022-10-23T02:35:27;95894.03;;;11.74;100.00
14067;BME280;7108;42.684;23.350;2022-10-23T02:37:57;95907.31;;;11.67;100.00
14067;BME280;7108;42.684;23.350;2022-10-23T02:40:34;95911.09;;;11.63;100.00
14067;BME280;7108;42.684;23.350;2022-10-23T02:43:13;95898.28;;;11.60;100.00
14067;BME280;7108;42.684;23.350;2022-10-23T02:46:06;95910.22;;;11.74;100.00
14067;BME280;7108;42.684;23.350;2022-10-23T02:48:47;95927.03;;;11.83;100.00
14067;BME280;7108;42.684;23.350;2022-10-23T02:51:29;95908.91;;;11.83;100.00
14067;BME280;7108;42.684;23.350;2022-10-23T02:54:07;95922.31;;;11.95;100.00
14067;BME280;7108;42.684;23.350;2022-10-23T02:56:55;95915.19;;;12.03;100.00
14067;BME280;7108;42.684;23.350;2022-10-23T02:59:44;95898.28;;;12.06;100.00
14067;BME280;7108;42.684;23.350;2022-10-23T03:02:21;95901.06;;;12.09;100.00
14067;BME280;7108;42.684;23.350;2022-10-23T03:04:50;95917.00;;;11.99;100.00
14067;BME280;7108;42.684;23.350;2022-10-23T03:07:21;95924.06;;;12.03;100.00
14067;BME280;7108;42.684;23.350;2022-10-23T03:09:49;95915.00;;;11.96;100.00
14067;BME280;7108;42.684;23.350;2022-10-23T03:12:17;95925.47;;;11.97;100.00
14067;BME280;7108;42.684;23.350;2022-10-23T03:14:42;95922.84;;;12.01;100.00
14067;BME280;7108;42.684;23.350;2022-10-23T03:17:11;95931.56;;;12.10;100.00
14067;BME280;7108;42.684;23.350;2022-10-23T03:19:39;95922.41;;;11.99;100.00
14067;BME280;7108;42.684;23.350;2022-10-23T03:22:04;95926.09;;;11.91;100.00
14067;BME280;7108;42.684;23.350;2022-10-23T03:24:37;95932.25;;;11.91;100.00
14067;BME280;7108;42.684;23.350;2022-10-23T03:27:03;95926.00;;;11.87;100.00
14067;BME280;7108;42.684;23.350;2022-10-23T03:29:34;95946.81;;;12.02;100.00
14067;BME280;7108;42.684;23.350;2022-10-23T03:32:10;95937.31;;;11.77;100.00
14067;BME280;7108;42.684;23.350;2022-10-23T03:34:38;95946.97;;;11.94;100.00
14067;BME280;7108;42.684;23.350;2022-10-23T03:37:09;95944.00;;;11.99;100.00
14067;BME280;7108;42.684;23.350;2022-10-23T03:39:37;95935.75;;;11.92;100.00
14067;BME280;7108;42.684;23.350;2022-10-23T03:42:05;95956.56;;;12.07;100.00
14067;BME280;7108;42.684;23.350;2022-10-23T03:44:30;95932.94;;;12.04;100.00
14067;BME280;7108;42.684;23.350;2022-10-23T03:47:02;95944.66;;;12.08;100.00
14067;BME280;7108;42.684;23.350;2022-10-23T03:49:30;95926.88;;;12.07;100.00
14067;BME280;7108;42.684;23.350;2022-10-23T03:51:59;95929.31;;;12.12;100.00
14067;BME280;7108;42.684;23.350;2022-10-23T03:54:28;95948.91;;;12.24;100.00
14067;BME280;7108;42.684;23.350;2022-10-23T03:56:54;95927.47;;;12.16;100.00
14067;BME280;7108;42.684;23.350;2022-10-23T03:59:26;95950.47;;;12.25;100.00
14067;BME280;7108;42.684;23.350;2022-10-23T04:01:59;95936.53;;;12.08;100.00
14067;BME280;7108;42.684;23.350;2022-10-23T04:04:36;95935.91;;;11.99;100.00
14067;BME280;7108;42.684;23.350;2022-10-23T04:07:04;95942.44;;;11.98;100.00
14067;BME280;7108;42.684;23.350;2022-10-23T04:09:33;95941.41;;;12.02;100.00
14067;BME280;7108;42.684;23.350;2022-10-23T04:12:03;95932.09;;;12.00;100.00
14067;BME280;7108;42.684;23.350;2022-10-23T04:14:29;95934.63;;;12.08;100.00
14067;BME280;7108;42.684;23.350;2022-10-23T04:17:00;95949.16;;;12.19;100.00
14067;BME280;7108;42.684;23.350;2022-10-23T04:19:28;95932.09;;;12.00;100.00
14067;BME280;7108;42.684;23.350;2022-10-23T04:21:57;95944.19;;;11.90;100.00
14067;BME280;7108;42.684;23.350;2022-10-23T04:24:25;95955.59;;;11.84;100.00
14067;BME280;7108;42.684;23.350;2022-10-23T04:26:56;95966.66;;;11.79;100.00
14067;BME280;7108;42.684;23.350;2022-10-23T04:29:22;95947.75;;;11.64;100.00
14067;BME280;7108;42.684;23.350;2022-10-23T04:31:52;95963.34;;;11.70;100.00
14067;BME280;7108;42.684;23.350;2022-10-23T04:34:17;95964.22;;;11.74;100.00
14067;BME280;7108;42.684;23.350;2022-10-23T04:36:55;95967.09;;;11.81;100.00
14067;BME280;7108;42.684;23.350;2022-10-23T04:39:28;95966.31;;;11.96;100.00
14067;BME280;7108;42.684;23.350;2022-10-23T04:41:54;95967.63;;;11.86;100.00
14067;BME280;7108;42.684;23.350;2022-10-23T04:44:25;95970.66;;;12.00;100.00
14067;BME280;7108;42.684;23.350;2022-10-23T04:46:56;95966.59;;;11.91;100.00
14067;BME280;7108;42.684;23.350;2022-10-23T04:49:27;95970.50;;;11.93;100.00
14067;BME280;7108;42.684;23.350;2022-10-23T04:51:55;95984.63;;;12.02;100.00
14067;BME280;7108;42.684;23.350;2022-10-23T04:54:23;95976.97;;;12.04;100.00
14067;BME280;7108;42.684;23.350;2022-10-23T04:56:56;95963.03;;;11.87;100.00
14067;BME280;7108;42.684;23.350;2022-10-23T04:59:22;95969.53;;;11.86;100.00
14067;BME280;7108;42.684;23.350;2022-10-23T05:01:50;95972.50;;;11.81;100.00
14067;BME280;7108;42.684;23.350;2022-10-23T05:07:01;95978.56;;;11.78;100.00
14067;BME280;7108;42.684;23.350;2022-10-23T05:09:29;95981.44;;;11.70;100.00
14067;BME280;7108;42.684;23.350;2022-10-23T05:12:00;95988.16;;;11.76;100.00
14067;BME280;7108;42.684;23.350;2022-10-23T05:14:28;95964.28;;;11.62;100.00
14067;BME280;7108;42.684;23.350;2022-10-23T05:16:59;95988.59;;;11.77;100.00
14067;BME280;7108;42.684;23.350;2022-10-23T05:19:41;95990.44;;;11.74;100.00
14067;BME280;7108;42.684;23.350;2022-10-23T05:22:14;95995.44;;;11.87;100.00
14067;BME280;7108;42.684;23.350;2022-10-23T05:24:48;95979.97;;;11.72;100.00
14067;BME280;7108;42.684;23.350;2022-10-23T05:27:19;95990.00;;;11.72;100.00
14067;BME280;7108;42.684;23.350;2022-10-23T05:29:50;95993.47;;;11.72;100.00
14067;BME280;7108;42.684;23.350;2022-10-23T05:32:19;95994.78;;;11.78;100.00
14067;BME280;7108;42.684;23.350;2022-10-23T05:34:50;96001.22;;;11.74;100.00
14067;BME280;7108;42.684;23.350;2022-10-23T05:37:20;96002.78;;;11.75;100.00
14067;BME280;7108;42.684;23.350;2022-10-23T05:39:45;95986.88;;;11.85;100.00
14067;BME280;7108;42.684;23.350;2022-10-23T05:42:11;96008.66;;;12.07;100.00
14067;BME280;7108;42.684;23.350;2022-10-23T05:44:39;96005.28;;;12.10;100.00
14067;BME280;7108;42.684;23.350;2022-10-23T05:47:06;96023.06;;;12.27;100.00
14067;BME280;7108;42.684;23.350;2022-10-23T05:49:31;96017.47;;;12.20;100.00
14067;BME280;7108;42.684;23.350;2022-10-23T05:51:59;96039.44;;;12.18;100.00
14067;BME280;7108;42.684;23.350;2022-10-23T05:54:32;96046.75;;;12.02;100.00
14067;BME280;7108;42.684;23.350;2022-10-23T05:57:04;96030.94;;;11.89;100.00
14067;BME280;7108;42.684;23.350;2022-10-23T05:59:35;96020.41;;;11.84;100.00
14067;BME280;7108;42.684;23.350;2022-10-23T06:02:00;96045.88;;;12.14;100.00
14067;BME280;7108;42.684;23.350;2022-10-23T06:04:26;96069.69;;;12.24;100.00
14067;BME280;7108;42.684;23.350;2022-10-23T06:06:54;96050.34;;;12.22;100.00
14067;BME280;7108;42.684;23.350;2022-10-23T06:09:22;96059.69;;;12.24;100.00
14067;BME280;7108;42.684;23.350;2022-10-23T06:11:52;96057.91;;;12.16;100.00
14067;BME280;7108;42.684;23.350;2022-10-23T06:14:23;96057.31;;;12.23;100.00
14067;BME280;7108;42.684;23.350;2022-10-23T06:16:57;96067.97;;;12.31;100.00
14067;BME280;7108;42.684;23.350;2022-10-23T06:19:25;96079.63;;;12.50;100.00
14067;BME280;7108;42.684;23.350;2022-10-23T06:21:53;96071.72;;;12.57;100.00
14067;BME280;7108;42.684;23.350;2022-10-23T06:24:22;96065.19;;;12.58;100.00
14067;BME280;7108;42.684;23.350;2022-10-23T06:26:50;96066.31;;;12.73;100.00
14067;BME280;7108;42.684;23.350;2022-10-23T06:29:18;96063.41;;;12.81;100.00
14067;BME280;7108;42.684;23.350;2022-10-23T06:31:47;96067.84;;;13.05;100.00
14067;BME280;7108;42.684;23.350;2022-10-23T06:34:13;96068.97;;;13.19;100.00
14067;BME280;7108;42.684;23.350;2022-10-23T06:36:44;96053.25;;;13.24;100.00
14067;BME280;7108;42.684;23.350;2022-10-23T06:39:12;96059.88;;;13.65;100.00
14067;BME280;7108;42.684;23.350;2022-10-23T06:41:42;96054.03;;;13.81;100.00
14067;BME280;7108;42.684;23.350;2022-10-23T06:44:12;96065.09;;;14.11;100.00
14067;BME280;7108;42.684;23.350;2022-10-23T06:46:40;96061.13;;;14.27;100.00
14067;BME280;7108;42.684;23.350;2022-10-23T06:49:06;96060.38;;;14.49;100.00
14067;BME280;7108;42.684;23.350;2022-10-23T06:51:38;96063.88;;;14.72;100.00
14067;BME280;7108;42.684;23.350;2022-10-23T06:54:13;96073.19;;;14.97;100.00
14067;BME280;7108;42.684;23.350;2022-10-23T06:56:47;96066.38;;;15.32;100.00
14067;BME280;7108;42.684;23.350;2022-10-23T06:59:15;96061.19;;;15.78;100.00
14067;BME280;7108;42.684;23.350;2022-10-23T07:01:44;96080.47;;;16.03;100.00
14067;BME280;7108;42.684;23.350;2022-10-23T07:04:18;96082.13;;;16.11;100.00
14067;BME280;7108;42.684;23.350;2022-10-23T07:06:47;96034.44;;;15.84;100.00
14067;BME280;7108;42.684;23.350;2022-10-23T07:09:20;96051.75;;;16.02;100.00
14067;BME280;7108;42.684;23.350;2022-10-23T07:11:46;96068.94;;;16.13;100.00
14067;BME280;7108;42.684;23.350;2022-10-23T07:14:14;96063.06;;;16.40;100.00
14067;BME280;7108;42.684;23.350;2022-10-23T07:16:42;96064.31;;;16.49;100.00
14067;BME280;7108;42.684;23.350;2022-10-23T07:19:08;96063.91;;;16.47;100.00
14067;BME280;7108;42.684;23.350;2022-10-23T07:21:34;96086.88;;;16.50;100.00
14067;BME280;7108;42.684;23.350;2022-10-23T07:24:03;96065.78;;;16.40;100.00
14067;BME280;7108;42.684;23.350;2022-10-23T07:26:31;96065.38;;;16.38;100.00
14067;BME280;7108;42.684;23.350;2022-10-23T07:28:57;96081.00;;;16.48;100.00
14067;BME280;7108;42.684;23.350;2022-10-23T07:31:31;96069.66;;;16.39;100.00
14067;BME280;7108;42.684;23.350;2022-10-23T07:33:56;96079.91;;;16.52;100.00
14067;BME280;7108;42.684;23.350;2022-10-23T07:36:22;96083.47;;;16.60;100.00
14067;BME280;7108;42.684;23.350;2022-10-23T07:38:52;96034.97;;;16.29;100.00
14067;BME280;7108;42.684;23.350;2022-10-23T07:41:21;96060.81;;;16.49;100.00
14067;BME280;7108;42.684;23.350;2022-10-23T07:43:49;96071.00;;;16.59;100.00
14067;BME280;7108;42.684;23.350;2022-10-23T07:46:14;96082.34;;;16.64;100.00
14067;BME280;7108;42.684;23.350;2022-10-23T07:48:40;96086.31;;;16.74;100.00
14067;BME280;7108;42.684;23.350;2022-10-23T07:51:09;96090.63;;;16.78;100.00
14067;BME280;7108;42.684;23.350;2022-10-23T07:53:41;96068.91;;;16.82;100.00
14067;BME280;7108;42.684;23.350;2022-10-23T07:56:16;96039.28;;;16.73;100.00
14067;BME280;7108;42.684;23.350;2022-10-23T07:58:45;96070.25;;;17.05;100.00
14067;BME280;7108;42.684;23.350;2022-10-23T08:01:23;96067.19;;;17.13;100.00
14067;BME280;7108;42.684;23.350;2022-10-23T08:03:53;96078.50;;;17.19;100.00
14067;BME280;7108;42.684;23.350;2022-10-23T08:06:23;96076.22;;;17.21;100.00
14067;BME280;7108;42.684;23.350;2022-10-23T08:08:51;96077.38;;;17.23;100.00
14067;BME280;7108;42.684;23.350;2022-10-23T08:11:19;96079.78;;;17.28;100.00
14067;BME280;7108;42.684;23.350;2022-10-23T08:13:54;96068.13;;;17.31;100.00
14067;BME280;7108;42.684;23.350;2022-10-23T08:16:24;96056.84;;;17.33;100.00
14067;BME280;7108;42.684;23.350;2022-10-23T08:18:54;96056.84;;;17.33;100.00
14067;BME280;7108;42.684;23.350;2022-10-23T08:21:20;96058.84;;;17.43;100.00
14067;BME280;7108;42.684;23.350;2022-10-23T08:23:48;96081.94;;;17.59;100.00
14067;BME280;7108;42.684;23.350;2022-10-23T08:26:17;96071.78;;;17.56;100.00
14067;BME280;7108;42.684;23.350;2022-10-23T08:28:45;96068.66;;;17.54;100.00
14067;BME280;7108;42.684;23.350;2022-10-23T08:31:15;96084.25;;;17.57;100.00
14067;BME280;7108;42.684;23.350;2022-10-23T08:33:44;96071.03;;;17.66;100.00
14067;BME280;7108;42.684;23.350;2022-10-23T08:36:21;96059.31;;;17.52;100.00
14067;BME280;7108;42.684;23.350;2022-10-23T08:38:47;96080.03;;;17.67;100.00
14067;BME280;7108;42.684;23.350;2022-10-23T08:44:29;96083.16;;;17.72;100.00
14067;BME280;7108;42.684;23.350;2022-10-23T08:47:10;96062.13;;;17.69;100.00
14067;BME280;7108;42.684;23.350;2022-10-23T08:49:56;96071.50;;;17.75;100.00
14067;BME280;7108;42.684;23.350;2022-10-23T08:52:47;96062.50;;;17.68;100.00
14067;BME280;7108;42.684;23.350;2022-10-23T08:55:30;96076.56;;;17.76;100.00
14067;BME280;7108;42.684;23.350;2022-10-23T09:00:56;96065.69;;;17.83;100.00
14067;BME280;7108;42.684;23.350;2022-10-23T09:03:25;96064.53;;;17.88;100.00
14067;BME280;7108;42.684;23.350;2022-10-23T09:06:02;96064.19;;;18.00;100.00
14067;BME280;7108;42.684;23.350;2022-10-23T09:18:41;96054.19;;;18.28;100.00
14067;BME280;7108;42.684;23.350;2022-10-23T09:21:12;96067.09;;;18.42;100.00
14067;BME280;7108;42.684;23.350;2022-10-23T09:23:41;96055.38;;;18.41;100.00
14067;BME280;7108;42.684;23.350;2022-10-23T09:26:15;96071.00;;;18.47;100.00
14067;BME280;7108;42.684;23.350;2022-10-23T09:28:54;96044.84;;;18.36;100.00
14067;BME280;7108;42.684;23.350;2022-10-23T09:31:23;96044.84;;;18.43;100.00
14067;BME280;7108;42.684;23.350;2022-10-23T09:33:59;96063.22;;;18.60;100.00
14067;BME280;7108;42.684;23.350;2022-10-23T09:36:31;96058.94;;;18.62;100.00
14067;BME280;7108;42.684;23.350;2022-10-23T09:39:10;96039.81;;;18.52;100.00
14067;BME280;7108;42.684;23.350;2022-10-23T09:41:49;96063.59;;;18.62;100.00
14067;BME280;7108;42.684;23.350;2022-10-23T09:44:35;96055.03;;;18.74;100.00
14067;BME280;7108;42.684;23.350;2022-10-23T09:49:37;96048.03;;;18.83;97.16
14067;BME280;7108;42.684;23.350;2022-10-23T09:54:53;96037.88;;;18.91;97.02
14067;BME280;7108;42.684;23.350;2022-10-23T09:57:39;96044.50;;;19.04;95.18
14067;BME280;7108;42.684;23.350;2022-10-23T10:00:19;96031.25;;;18.99;93.60
14067;BME280;7108;42.684;23.350;2022-10-23T10:03:23;96038.28;;;19.03;91.20
14067;BME280;7108;42.684;23.350;2022-10-23T10:05:58;96030.06;;;19.07;92.11
14067;BME280;7108;42.684;23.350;2022-10-23T10:08:38;95973.53;;;18.76;92.21
14067;BME280;7108;42.684;23.350;2022-10-23T10:17:02;96027.31;;;19.34;83.47
14067;BME280;7108;42.684;23.350;2022-10-23T10:20:21;96010.91;;;19.45;76.63
14067;BME280;7108;42.684;23.350;2022-10-23T10:36:48;95997.84;;;19.94;67.13
14067;BME280;7108;42.684;23.350;2022-10-23T10:45:24;96010.28;;;20.09;69.24
14067;BME280;7108;42.684;23.350;2022-10-23T10:56:16;96004.78;;;20.16;67.98
14067;BME280;7108;42.684;23.350;2022-10-23T10:58:53;95984.50;;;20.06;70.02
14067;BME280;7108;42.684;23.350;2022-10-23T11:07:19;95957.53;;;20.05;65.66
14067;BME280;7108;42.684;23.350;2022-10-23T11:09:49;95968.91;;;20.03;66.16
14067;BME280;7108;42.684;23.350;2022-10-23T11:12:26;95943.56;;;19.92;65.04
14067;BME280;7108;42.684;23.350;2022-10-23T11:14:57;95950.16;;;19.91;61.53
14067;BME280;7108;42.684;23.350;2022-10-23T11:17:38;95915.88;;;19.70;63.96
14067;BME280;7108;42.684;23.350;2022-10-23T11:26:06;95973.00;;;20.32;63.32
14067;BME280;7108;42.684;23.350;2022-10-23T11:31:59;95959.72;;;20.34;63.04
14067;BME280;7108;42.684;23.350;2022-10-23T11:37:17;95948.75;;;20.38;63.48
14067;BME280;7108;42.684;23.350;2022-10-23T11:40:11;95932.31;;;20.38;63.17
14067;BME280;7108;42.684;23.350;2022-10-23T11:45:32;95947.09;;;20.47;62.33
14067;BME280;7108;42.684;23.350;2022-10-23T11:53:45;95943.81;;;20.66;60.16
14067;BME280;7108;42.684;23.350;2022-10-23T11:58:54;95931.66;;;20.67;60.08
14067;BME280;7108;42.684;23.350;2022-10-23T12:01:59;95937.53;;;20.65;56.75
14067;BME280;7108;42.684;23.350;2022-10-23T12:04:27;95935.19;;;20.67;56.43
14067;BME280;7108;42.684;23.350;2022-10-23T12:06:57;95922.72;;;20.59;56.21
14067;BME280;7108;42.684;23.350;2022-10-23T12:14:53;95923.06;;;20.68;57.44
14067;BME280;7108;42.684;23.350;2022-10-23T12:17:39;95916.47;;;20.59;55.88
14067;BME280;7108;42.684;23.350;2022-10-23T12:22:53;95914.50;;;20.59;57.05
14067;BME280;7108;42.684;23.350;2022-10-23T12:31:50;95916.06;;;20.60;54.82
14067;BME280;7108;42.684;23.350;2022-10-23T12:34:43;95914.91;;;20.61;56.09
14067;BME280;7108;42.684;23.350;2022-10-23T12:40:06;95918.03;;;20.60;53.56
14067;BME280;7108;42.684;23.350;2022-10-23T12:42:36;95909.00;;;20.63;54.14
14067;BME280;7108;42.684;23.350;2022-10-23T12:45:13;95909.72;;;20.70;54.33
14067;BME280;7108;42.684;23.350;2022-10-23T12:47:42;95916.03;;;20.67;53.94
14067;BME280;7108;42.684;23.350;2022-10-23T12:52:56;95925.78;;;20.68;53.51
14067;BME280;7108;42.684;23.350;2022-10-23T12:55:29;95923.41;;;20.70;53.48
14067;BME280;7108;42.684;23.350;2022-10-23T12:57:55;95914.06;;;20.64;53.56
14067;BME280;7108;42.684;23.350;2022-10-23T13:00:22;95909.81;;;20.63;52.55
14067;BME280;7108;42.684;23.350;2022-10-23T13:03:01;95909.47;;;20.54;52.14
14067;BME280;7108;42.684;23.350;2022-10-23T13:05:28;95924.59;;;20.69;51.55
14067;BME280;7108;42.684;23.350;2022-10-23T13:08:07;95924.97;;;20.75;51.36
14067;BME280;7108;42.684;23.350;2022-10-23T13:10:36;95912.91;;;20.65;50.58
14067;BME280;7108;42.684;23.350;2022-10-23T13:13:05;95930.47;;;20.75;51.10
14067;BME280;7108;42.684;23.350;2022-10-23T13:15:44;95912.59;;;20.56;50.50
14067;BME280;7108;42.684;23.350;2022-10-23T13:18:15;95916.91;;;20.54;50.28
14067;BME280;7108;42.684;23.350;2022-10-23T13:21:01;95925.47;;;20.59;50.55
14067;BME280;7108;42.684;23.350;2022-10-23T13:23:36;95921.53;;;20.64;51.14
14067;BME280;7108;42.684;23.350;2022-10-23T13:26:27;95932.50;;;20.60;50.83
14067;BME280;7108;42.684;23.350;2022-10-23T13:28:54;95914.91;;;20.58;50.88
14067;BME280;7108;42.684;23.350;2022-10-23T13:31:31;95910.25;;;20.58;50.62
14067;BME280;7108;42.684;23.350;2022-10-23T13:36:28;95922.25;;;20.68;50.20
14067;BME280;7108;42.684;23.350;2022-10-23T13:39:13;95927.38;;;20.66;50.86
14067;BME280;7108;42.684;23.350;2022-10-23T13:41:45;95926.59;;;20.65;51.66
14067;BME280;7108;42.684;23.350;2022-10-23T13:44:13;95912.22;;;20.51;50.60
14067;BME280;7108;42.684;23.350;2022-10-23T13:46:39;95930.19;;;20.55;49.71
14067;BME280;7108;42.684;23.350;2022-10-23T13:49:11;95913.50;;;20.40;49.36
14067;BME280;7108;42.684;23.350;2022-10-23T13:51:51;95941.25;;;20.45;49.75
14067;BME280;7108;42.684;23.350;2022-10-23T13:54:33;95933.81;;;20.42;49.48
14067;BME280;7108;42.684;23.350;2022-10-23T13:56:59;95919.81;;;20.33;49.30
14067;BME280;7108;42.684;23.350;2022-10-23T13:59:24;95929.22;;;20.29;50.08
14067;BME280;7108;42.684;23.350;2022-10-23T14:01:50;95928.88;;;20.27;50.70
14067;BME280;7108;42.684;23.350;2022-10-23T14:04:16;95921.91;;;20.15;50.79
14067;BME280;7108;42.684;23.350;2022-10-23T14:06:42;95937.47;;;20.25;51.54
14067;BME280;7108;42.684;23.350;2022-10-23T14:09:16;95931.69;;;20.13;52.60
14067;BME280;7108;42.684;23.350;2022-10-23T14:11:42;95930.50;;;20.14;52.28
14067;BME280;7108;42.684;23.350;2022-10-23T14:14:08;95914.19;;;20.00;53.12
14067;BME280;7108;42.684;23.350;2022-10-23T14:16:33;95917.75;;;19.93;54.03
14067;BME280;7108;42.684;23.350;2022-10-23T14:19:01;95918.09;;;20.02;55.22
14067;BME280;7108;42.684;23.350;2022-10-23T14:21:30;95915.78;;;19.94;55.10
14067;BME280;7108;42.684;23.350;2022-10-23T14:23:56;95909.56;;;19.86;56.10
14067;BME280;7108;42.684;23.350;2022-10-23T14:26:25;95916.59;;;19.87;56.03
14067;BME280;7108;42.684;23.350;2022-10-23T14:28:56;95931.00;;;19.91;56.88
14067;BME280;7108;42.684;23.350;2022-10-23T14:31:24;95920.50;;;19.86;58.15
14067;BME280;7108;42.684;23.350;2022-10-23T14:33:57;95926.38;;;19.81;58.48
14067;BME280;7108;42.684;23.350;2022-10-23T14:36:30;95930.28;;;19.84;59.82
14067;BME280;7108;42.684;23.350;2022-10-23T14:38:58;95915.47;;;19.74;59.93
14067;BME280;7108;42.684;23.350;2022-10-23T14:41:25;95923.25;;;19.79;60.43
14067;BME280;7108;42.684;23.350;2022-10-23T14:43:57;95924.09;;;19.70;61.26
14067;BME280;7108;42.684;23.350;2022-10-23T14:46:23;95892.13;;;19.53;62.31
14067;BME280;7108;42.684;23.350;2022-10-23T14:48:55;95898.78;;;19.55;63.21
14067;BME280;7108;42.684;23.350;2022-10-23T14:51:27;95921.00;;;19.64;64.94
14067;BME280;7108;42.684;23.350;2022-10-23T14:54:05;95913.25;;;19.45;65.98
14067;BME280;7108;42.684;23.350;2022-10-23T14:56:37;95913.66;;;19.44;66.88
14067;BME280;7108;42.684;23.350;2022-10-23T14:59:08;95918.78;;;19.42;67.40
14067;BME280;7108;42.684;23.350;2022-10-23T15:01:42;95926.56;;;19.40;68.27
14067;BME280;7108;42.684;23.350;2022-10-23T15:04:11;95905.94;;;19.28;68.91
14067;BME280;7108;42.684;23.350;2022-10-23T15:06:39;95917.22;;;19.34;69.54
14067;BME280;7108;42.684;23.350;2022-10-23T15:09:14;95901.66;;;19.20;70.32
14067;BME280;7108;42.684;23.350;2022-10-23T15:11:39;95921.56;;;19.21;71.52
14067;BME280;7108;42.684;23.350;2022-10-23T15:14:08;95929.38;;;19.22;71.96
14067;BME280;7108;42.684;23.350;2022-10-23T15:16:33;95921.19;;;19.12;72.52
14067;BME280;7108;42.684;23.350;2022-10-23T15:19:06;95923.94;;;19.08;73.77
14067;BME280;7108;42.684;23.350;2022-10-23T15:21:34;95918.84;;;19.04;74.37
14067;BME280;7108;42.684;23.350;2022-10-23T15:24:00;95930.59;;;19.08;75.59
14067;BME280;7108;42.684;23.350;2022-10-23T15:26:37;95929.00;;;18.93;76.40